createdAt,value
2022-12-23T00:02:23.084Z,95411.00
2022-12-23T00:05:19.963Z,95408.31
2022-12-23T00:08:17.249Z,95415.38
2022-12-23T00:11:19.407Z,95410.97
2022-12-23T00:14:34.663Z,95413.63
2022-12-23T00:17:43.547Z,95406.75
2022-12-23T00:20:40.433Z,95396.09
2022-12-23T00:23:40.753Z,95399.84
2022-12-23T00:26:37.571Z,95391.09
2022-12-23T00:29:34.382Z,95386.41
2022-12-23T00:32:31.212Z,95397.19
2022-12-23T00:35:32.125Z,95402.47
2022-12-23T00:38:47.614Z,95412.22
2022-12-23T00:42:03.922Z,95400.16
2022-12-23T00:45:15.701Z,95408.28
2022-12-23T00:48:31.621Z,95395.31
2022-12-23T00:51:28.524Z,95397.47
2022-12-23T00:54:25.428Z,95391.84
2022-12-23T00:57:22.251Z,95394.38
2022-12-23T01:00:19.647Z,95388.41
2022-12-23T01:03:35.107Z,95384.97
2022-12-23T01:06:32.093Z,95392.81
2022-12-23T01:09:28.924Z,95389.22
2022-12-23T01:12:25.751Z,95379.50
2022-12-23T01:15:22.715Z,95384.84
2022-12-23T01:18:19.553Z,95378.09
2022-12-23T01:21:16.624Z,95384.19
2022-12-23T01:24:13.505Z,95381.22
2022-12-23T01:27:10.352Z,95378.09
2022-12-23T01:30:08.096Z,95375.75
2022-12-23T01:33:05.086Z,95383.22
2022-12-23T01:36:07.537Z,95365.25
2022-12-23T01:39:04.637Z,95371.34
2022-12-23T01:42:20.377Z,95376.84
2022-12-23T01:45:30.055Z,95375.25
2022-12-23T01:48:27.810Z,95381.34
2022-12-23T01:51:29.744Z,95381.97
2022-12-23T01:54:26.854Z,95374.47
2022-12-23T01:57:24.673Z,95375.09
2022-12-23T02:00:39.949Z,95376.97
2022-12-23T02:03:43.667Z,95376.97
2022-12-23T02:07:01.458Z,95373.38
2022-12-23T02:09:58.977Z,95382.94
2022-12-23T02:13:21.683Z,95376.50
2022-12-23T02:16:18.711Z,95382.91
2022-12-23T02:19:44.561Z,95373.53
2022-12-23T02:23:28.132Z,95382.25
2022-12-23T02:27:11.691Z,95382.25
2022-12-23T02:30:45.830Z,95389.63
2022-12-23T02:34:01.213Z,95398.22
2022-12-23T02:37:05.535Z,95391.81
2022-12-23T02:40:13.193Z,95388.97
2022-12-23T02:43:40.394Z,95398.25
2022-12-23T02:46:51.701Z,95401.69
2022-12-23T02:49:55.138Z,95399.97
2022-12-23T02:52:53.765Z,95394.47
2022-12-23T02:55:53.007Z,95401.69
2022-12-23T02:58:58.526Z,95404.00
2022-12-23T03:01:55.874Z,95406.34
2022-12-23T03:04:52.935Z,95407.59
2022-12-23T03:07:50.604Z,95406.50
2022-12-23T03:11:05.617Z,95404.16
2022-12-23T03:14:36.544Z,95402.88
2022-12-23T03:18:02.224Z,95409.16
2022-12-23T03:21:16.646Z,95403.38
2022-12-23T03:24:54.389Z,95406.16
2022-12-23T03:28:22.478Z,95419.16
2022-12-23T03:31:27.103Z,95412.44
2022-12-23T03:34:30.155Z,95419.47
2022-12-23T03:37:30.258Z,95415.00
2022-12-23T03:40:34.849Z,95424.03
2022-12-23T03:43:50.727Z,95424.81
2022-12-23T03:47:00.679Z,95418.91
2022-12-23T03:50:06.015Z,95423.78
2022-12-23T03:53:15.153Z,95434.25
2022-12-23T03:56:38.682Z,95421.88
2022-12-23T03:59:41.090Z,95421.78
2022-12-23T04:03:02.800Z,95417.97
2022-12-23T04:06:02.177Z,95418.31
2022-12-23T04:08:59.925Z,95411.25
2022-12-23T04:11:58.348Z,95419.06
2022-12-23T04:14:55.255Z,95429.88
2022-12-23T04:17:54.435Z,95428.00
2022-12-23T04:20:51.272Z,95428.31
2022-12-23T04:23:48.110Z,95437.53
2022-12-23T04:26:45.176Z,95446.19
2022-12-23T04:29:42.903Z,95440.72
2022-12-23T04:32:40.950Z,95440.09
2022-12-23T04:35:37.798Z,95437.91
2022-12-23T04:38:34.634Z,95450.91
2022-12-23T04:41:31.516Z,95451.81
2022-12-23T04:44:28.345Z,95457.28
2022-12-23T04:47:25.199Z,95447.25
2022-12-23T04:50:22.086Z,95458.66
2022-12-23T04:53:18.915Z,95456.97
2022-12-23T04:56:15.732Z,95464.47
2022-12-23T04:59:12.649Z,95473.06
2022-12-23T05:02:10.006Z,95474.28
2022-12-23T05:05:07.283Z,95473.53
2022-12-23T05:08:06.577Z,95478.25
2022-12-23T05:11:03.929Z,95477.03
2022-12-23T05:14:00.756Z,95479.34
2022-12-23T05:17:00.889Z,95478.75
2022-12-23T05:20:02.167Z,95472.66
2022-12-23T05:22:58.993Z,95472.63
2022-12-23T05:25:55.884Z,95477.16
2022-12-23T05:28:52.713Z,95480.31
2022-12-23T05:31:49.615Z,95489.56
2022-12-23T05:34:46.913Z,95492.06
2022-12-23T05:37:44.025Z,95480.44
2022-12-23T05:40:41.121Z,95472.19
2022-12-23T05:43:38.208Z,95476.38
2022-12-23T05:46:35.187Z,95484.66
2022-12-23T05:49:32.014Z,95481.06
2022-12-23T05:52:28.921Z,95483.56
2022-12-23T05:55:27.189Z,95488.81
2022-12-23T05:58:24.353Z,95493.63
2022-12-23T06:01:21.165Z,95494.53
2022-12-23T06:04:18.084Z,95494.03
2022-12-23T06:07:15.302Z,95476.22
2022-12-23T06:10:12.314Z,95477.47
2022-12-23T06:13:09.372Z,95480.13
2022-12-23T06:16:06.703Z,95488.25
2022-12-23T06:19:03.925Z,95497.50
2022-12-23T06:22:00.784Z,95501.91
2022-12-23T06:24:57.774Z,95517.06
2022-12-23T06:27:54.672Z,95522.69
2022-12-23T06:30:56.113Z,95520.72
2022-12-23T06:33:52.952Z,95522.91
2022-12-23T06:36:49.799Z,95524.56
2022-12-23T06:39:46.690Z,95518.78
2022-12-23T06:42:43.521Z,95525.97
2022-12-23T06:45:41.416Z,95528.38
2022-12-23T06:48:38.362Z,95539.34
2022-12-23T06:51:35.360Z,95535.88
2022-12-23T06:54:32.204Z,95532.03
2022-12-23T06:57:29.035Z,95536.53
2022-12-23T07:00:25.860Z,95536.63
2022-12-23T07:03:23.012Z,95549.31
2022-12-23T07:06:19.906Z,95556.81
2022-12-23T07:09:16.776Z,95546.34
2022-12-23T07:12:13.688Z,95559.53
2022-12-23T07:15:11.144Z,95560.25
2022-12-23T07:18:08.339Z,95547.63
2022-12-23T07:21:07.913Z,95561.47
2022-12-23T07:24:10.689Z,95564.38
2022-12-23T07:27:07.521Z,95573.47
2022-12-23T07:30:08.350Z,95580.34
2022-12-23T07:33:05.285Z,95579.72
2022-12-23T07:36:02.120Z,95574.94
2022-12-23T07:38:58.962Z,95587.78
2022-12-23T07:42:09.340Z,95597.63
2022-12-23T07:45:12.680Z,95602.28
2022-12-23T07:48:09.793Z,95599.94
2022-12-23T07:51:06.644Z,95596.47
2022-12-23T07:54:03.640Z,95599.44
2022-12-23T07:57:00.632Z,95593.19
2022-12-23T08:00:00.590Z,95594.50
2022-12-23T08:02:57.870Z,95600.19
2022-12-23T08:06:07.663Z,95602.59
2022-12-23T08:09:06.621Z,95589.75
2022-12-23T08:12:03.654Z,95597.75
2022-12-23T08:15:00.589Z,95581.06
2022-12-23T08:17:57.477Z,95591.09
2022-12-23T08:20:58.799Z,95586.56
2022-12-23T08:23:55.632Z,95586.47
2022-12-23T08:26:52.479Z,95590.84
2022-12-23T08:29:49.297Z,95591.16
2022-12-23T08:32:46.163Z,95599.22
2022-12-23T08:35:42.991Z,95606.72
2022-12-23T08:38:39.878Z,95614.94
2022-12-23T08:41:43.624Z,95635.44
2022-12-23T08:44:40.446Z,95635.44
2022-12-23T08:47:37.296Z,95645.91
2022-12-23T08:50:43.386Z,95639.66
2022-12-23T08:53:41.260Z,95637.78
2022-12-23T08:56:42.391Z,95660.00
2022-12-23T08:59:39.481Z,95640.47
2022-12-23T09:02:36.532Z,95641.03
2022-12-23T09:05:33.742Z,95655.22
2022-12-23T09:08:30.576Z,95659.00
2022-12-23T09:11:29.935Z,95666.66
2022-12-23T09:14:26.817Z,95662.81
2022-12-23T09:17:23.704Z,95670.78
2022-12-23T09:20:21.000Z,95660.91
2022-12-23T09:23:17.874Z,95656.56
2022-12-23T09:26:24.888Z,95642.97
2022-12-23T09:29:21.832Z,95646.16
2022-12-23T09:32:19.258Z,95651.59
2022-12-23T09:35:16.308Z,95648.50
2022-12-23T09:38:13.326Z,95647.53
2022-12-23T09:41:40.464Z,95647.53
2022-12-23T09:45:13.822Z,95654.41
2022-12-23T09:48:17.410Z,95649.72
2022-12-23T09:51:15.958Z,95650.50
2022-12-23T09:54:29.709Z,95649.03
2022-12-23T09:57:44.449Z,95639.47
2022-12-23T10:01:00.382Z,95640.47
2022-12-23T10:04:26.375Z,95643.53
2022-12-23T10:07:51.051Z,95635.56
2022-12-23T10:11:18.701Z,95640.09
2022-12-23T10:14:31.994Z,95644.31
2022-12-23T10:17:41.665Z,95642.75
2022-12-23T10:20:53.209Z,95651.13
2022-12-23T10:23:54.239Z,95632.16
2022-12-23T10:27:02.672Z,95645.94
2022-12-23T10:30:34.265Z,95642.03
2022-12-23T10:33:46.710Z,95642.75
2022-12-23T10:37:09.706Z,95653.63
2022-12-23T10:40:33.985Z,95639.06
2022-12-23T10:43:46.931Z,95634.34
2022-12-23T10:47:06.374Z,95626.84
2022-12-23T10:50:19.411Z,95628.88
2022-12-23T10:54:07.389Z,95628.09
2022-12-23T10:57:06.542Z,95633.09
2022-12-23T11:00:20.667Z,95637.97
2022-12-23T11:03:24.413Z,95627.97
2022-12-23T11:06:22.384Z,95628.75
2022-12-23T11:09:25.079Z,95625.47
2022-12-23T11:12:42.159Z,95629.59
2022-12-23T11:15:41.525Z,95626.66
2022-12-23T11:18:42.015Z,95622.63
2022-12-23T11:21:52.552Z,95633.16
2022-12-23T11:24:49.435Z,95621.13
2022-12-23T11:27:46.737Z,95619.09
2022-12-23T11:31:28.059Z,95611.88
2022-12-23T11:34:27.125Z,95617.53
2022-12-23T11:37:41.913Z,95609.53
2022-12-23T11:40:39.790Z,95610.09
2022-12-23T11:43:39.413Z,95599.13
2022-12-23T11:46:36.321Z,95603.84
2022-12-23T11:49:33.756Z,95603.81
2022-12-23T11:52:33.429Z,95597.81
2022-12-23T11:55:35.017Z,95582.94
2022-12-23T11:58:45.207Z,95583.59
2022-12-23T12:01:48.666Z,95595.59
2022-12-23T12:05:06.611Z,95584.81
2022-12-23T12:08:13.341Z,95579.34
2022-12-23T12:11:26.803Z,95572.97
2022-12-23T12:14:32.362Z,95571.22
2022-12-23T12:17:46.988Z,95560.88
2022-12-23T12:20:53.333Z,95554.47
2022-12-23T12:24:08.187Z,95548.69
2022-12-23T12:27:11.900Z,95540.34
2022-12-23T12:30:18.906Z,95544.44
2022-12-23T12:33:34.830Z,95530.59
2022-12-23T12:36:56.181Z,95527.81
2022-12-23T12:40:22.743Z,95521.25
2022-12-23T12:43:31.651Z,95520.56
2022-12-23T12:46:42.447Z,95521.97
2022-12-23T12:49:48.441Z,95513.22
2022-12-23T12:52:46.314Z,95508.00
2022-12-23T12:55:50.327Z,95514.31
2022-12-23T12:58:47.169Z,95506.63
2022-12-23T13:02:05.255Z,95503.97
2022-12-23T13:05:54.383Z,95481.72
2022-12-23T13:09:07.477Z,95488.28
2022-12-23T13:12:43.133Z,95482.16
2022-12-23T13:16:10.493Z,95481.38
2022-12-23T13:19:33.411Z,95472.47
2022-12-23T13:22:34.257Z,95478.09
2022-12-23T13:25:39.655Z,95482.34
2022-12-23T13:29:03.068Z,95482.44
2022-12-23T13:32:36.910Z,95483.34
2022-12-23T13:35:36.426Z,95480.41
2022-12-23T13:39:04.436Z,95461.78
2022-12-23T13:42:05.926Z,95467.22
2022-12-23T13:45:04.751Z,95465.84
2022-12-23T13:48:28.023Z,95463.47
2022-12-23T13:51:58.793Z,95457.38
2022-12-23T13:55:24.737Z,95456.13
2022-12-23T13:58:28.325Z,95458.34
2022-12-23T14:01:40.163Z,95457.34
2022-12-23T14:04:59.100Z,95452.03
2022-12-23T14:08:01.475Z,95462.84
2022-12-23T14:11:18.157Z,95458.28
2022-12-23T14:14:23.377Z,95456.06
2022-12-23T14:17:39.065Z,95450.41
2022-12-23T14:20:57.138Z,95444.88
2022-12-23T14:24:29.009Z,95436.59
2022-12-23T14:28:02.464Z,95408.75
2022-12-23T14:30:59.536Z,95412.22
2022-12-23T14:34:20.037Z,95404.31
2022-12-23T14:37:25.312Z,95415.13
2022-12-23T14:40:37.469Z,95401.66
2022-12-23T14:43:46.482Z,95397.91
2022-12-23T14:46:43.238Z,95378.81
2022-12-23T14:49:43.999Z,95373.94
2022-12-23T14:53:01.410Z,95385.06
2022-12-23T14:56:24.110Z,95376.00
2022-12-23T15:00:01.136Z,95366.59
2022-12-23T15:03:00.822Z,95358.00
2022-12-23T15:06:03.080Z,95362.38
2022-12-23T15:09:01.446Z,95364.72
2022-12-23T15:12:04.873Z,95372.06
2022-12-23T15:15:14.360Z,95376.91
2022-12-23T15:18:13.155Z,95372.41
2022-12-23T15:21:13.097Z,95382.56
2022-12-23T15:24:20.720Z,95382.91
2022-12-23T15:27:28.898Z,95373.34
2022-12-23T15:30:29.632Z,95362.38
2022-12-23T15:36:48.080Z,95352.06
2022-12-23T15:39:45.146Z,95341.72
2022-12-23T15:42:48.715Z,95339.84
2022-12-23T15:45:45.988Z,95348.72
2022-12-23T15:48:43.290Z,95335.13
2022-12-23T15:52:07.031Z,95313.97
2022-12-23T15:55:22.816Z,95320.06
2022-12-23T15:58:24.576Z,95297.38
2022-12-23T16:01:22.400Z,95290.63
2022-12-23T16:04:25.707Z,95278.59
2022-12-23T16:07:26.653Z,95271.22
2022-12-23T16:10:23.412Z,95287.50
2022-12-23T16:13:21.033Z,95280.28
2022-12-23T16:16:29.135Z,95275.59
2022-12-23T16:19:48.121Z,95286.72
2022-12-23T16:22:45.312Z,95268.88
2022-12-23T16:25:50.715Z,95277.50
2022-12-23T16:28:52.434Z,95276.72
2022-12-23T16:31:54.432Z,95287.03
2022-12-23T16:34:56.084Z,95286.56
2022-12-23T16:38:14.966Z,95279.38
2022-12-23T16:41:12.420Z,95279.19
2022-12-23T16:44:09.468Z,95262.13
2022-12-23T16:47:15.437Z,95268.41
2022-12-23T16:50:14.847Z,95256.00
2022-12-23T16:53:13.617Z,95255.09
2022-12-23T16:56:22.130Z,95258.84
2022-12-23T16:59:19.814Z,95256.00
2022-12-23T17:02:23.565Z,95260.88
2022-12-23T17:05:25.007Z,95238.78
2022-12-23T17:08:21.883Z,95234.38
2022-12-23T17:11:38.117Z,95231.91
2022-12-23T17:14:34.960Z,95227.69
2022-12-23T17:17:31.806Z,95222.34
2022-12-23T17:20:28.699Z,95218.28
2022-12-23T17:23:32.412Z,95222.66
2022-12-23T17:26:29.221Z,95222.81
2022-12-23T17:29:26.116Z,95212.63
2022-12-23T17:32:23.582Z,95207.59
2022-12-23T17:35:20.889Z,95197.56
2022-12-23T17:38:17.743Z,95195.16
2022-12-23T17:41:29.181Z,95180.63
2022-12-23T17:44:26.042Z,95176.25
2022-12-23T17:47:23.323Z,95178.75
2022-12-23T17:50:20.812Z,95180.03
2022-12-23T17:53:19.736Z,95187.81
2022-12-23T17:56:20.177Z,95174.47
2022-12-23T17:59:17.123Z,95182.47
2022-12-23T18:02:23.175Z,95179.59
2022-12-23T18:05:23.095Z,95184.34
2022-12-23T18:08:19.919Z,95183.59
2022-12-23T18:11:27.419Z,95193.44
2022-12-23T18:14:28.045Z,95205.69
2022-12-23T18:17:24.964Z,95211.56
2022-12-23T18:20:24.059Z,95209.25
2022-12-23T18:23:29.284Z,95201.28
2022-12-23T18:26:26.477Z,95194.06
2022-12-23T18:29:23.303Z,95194.97
2022-12-23T18:32:25.084Z,95194.78
2022-12-23T18:35:39.601Z,95203.56
2022-12-23T18:38:36.465Z,95200.06
2022-12-23T18:41:33.275Z,95200.91
2022-12-23T18:44:30.133Z,95192.00
2022-12-23T18:47:26.992Z,95207.19
2022-12-23T18:50:24.958Z,95211.84
2022-12-23T18:53:24.990Z,95206.72
2022-12-23T18:56:22.693Z,95197.72
2022-12-23T18:59:29.319Z,95223.97
2022-12-23T19:02:26.599Z,95216.09
2022-12-23T19:05:29.825Z,95215.16
2022-12-23T19:08:27.867Z,95215.19
2022-12-23T19:11:24.957Z,95212.38
2022-12-23T19:14:22.031Z,95214.09
2022-12-23T19:17:18.911Z,95226.50
2022-12-23T19:20:18.068Z,95213.78
2022-12-23T19:23:15.733Z,95229.06
2022-12-23T19:26:14.394Z,95226.41
2022-12-23T19:29:11.247Z,95230.69
2022-12-23T19:32:08.093Z,95215.56
2022-12-23T19:35:05.432Z,95223.13
2022-12-23T19:38:02.390Z,95224.41
2022-12-23T19:40:59.267Z,95232.97
2022-12-23T19:43:56.263Z,95235.38
2022-12-23T19:46:53.258Z,95248.03
2022-12-23T19:49:50.257Z,95262.44
2022-12-23T19:52:47.091Z,95269.66
2022-12-23T19:55:43.911Z,95266.69
2022-12-23T19:58:43.771Z,95280.16
2022-12-23T20:01:40.724Z,95266.19
2022-12-23T20:04:38.762Z,95267.88
2022-12-23T20:07:36.316Z,95273.41
2022-12-23T20:10:33.118Z,95268.50
2022-12-23T20:13:29.976Z,95272.75
2022-12-23T20:16:28.792Z,95281.25
2022-12-23T20:19:25.880Z,95283.09
2022-12-23T20:22:22.730Z,95289.25
2022-12-23T20:25:19.574Z,95293.75
2022-12-23T20:28:16.662Z,95303.06
2022-12-23T20:31:16.853Z,95293.91
2022-12-23T20:34:17.455Z,95291.25
2022-12-23T20:37:15.786Z,95287.88
2022-12-23T20:40:14.532Z,95284.59
2022-12-23T20:43:15.313Z,95293.72
2022-12-23T20:46:14.656Z,95293.50
2022-12-23T20:49:11.515Z,95292.63
2022-12-23T20:52:08.437Z,95288.69
2022-12-23T20:55:06.548Z,95281.84
2022-12-23T20:58:23.368Z,95291.03
2022-12-23T21:01:21.864Z,95294.75
2022-12-23T21:04:18.816Z,95306.88
2022-12-23T21:07:15.656Z,95309.34
2022-12-23T21:10:12.504Z,95320.19
2022-12-23T21:13:09.347Z,95322.22
2022-12-23T21:16:12.869Z,95334.78
2022-12-23T21:19:19.619Z,95342.91
2022-12-23T21:22:16.524Z,95355.50
2022-12-23T21:25:13.363Z,95358.47
2022-12-23T21:28:10.201Z,95370.56
2022-12-23T21:31:07.982Z,95368.53
2022-12-23T21:34:05.481Z,95364.44
2022-12-23T21:37:02.382Z,95368.66
2022-12-23T21:39:59.284Z,95384.81
2022-12-23T21:42:56.108Z,95402.66
2022-12-23T21:46:15.121Z,95400.78
2022-12-23T21:49:12.083Z,95398.13
2022-12-23T21:52:08.918Z,95399.22
2022-12-23T21:55:05.910Z,95403.13
2022-12-23T21:58:02.753Z,95407.69
2022-12-23T22:00:59.996Z,95403.47
2022-12-23T22:03:57.689Z,95413.81
2022-12-23T22:06:54.509Z,95406.13
2022-12-23T22:09:51.354Z,95412.88
2022-12-23T22:12:48.178Z,95425.28
2022-12-23T22:15:45.024Z,95436.88
2022-12-23T22:18:42.199Z,95437.66
2022-12-23T22:21:39.872Z,95433.44
2022-12-23T22:24:36.840Z,95437.66
2022-12-23T22:27:33.820Z,95433.75
2022-12-23T22:30:30.626Z,95429.03
2022-12-23T22:33:27.451Z,95435.78
2022-12-23T22:36:24.485Z,95441.91
2022-12-23T22:39:21.954Z,95440.78
2022-12-23T22:42:18.961Z,95429.22
2022-12-23T22:45:15.831Z,95433.75
2022-12-23T22:48:13.493Z,95442.22
2022-12-23T22:51:20.781Z,95442.22
2022-12-23T22:54:17.601Z,95436.41
2022-12-23T22:57:14.457Z,95442.06
2022-12-23T23:00:12.804Z,95443.63
2022-12-23T23:03:10.207Z,95447.41
2022-12-23T23:06:07.513Z,95460.75
2022-12-23T23:09:12.238Z,95455.22
2022-12-23T23:12:09.155Z,95458.69
2022-12-23T23:15:06.904Z,95465.59
2022-12-23T23:18:03.788Z,95471.88
2022-12-23T23:21:00.853Z,95469.19
2022-12-23T23:23:57.754Z,95473.44
2022-12-23T23:26:54.583Z,95490.66
2022-12-23T23:29:51.416Z,95493.97
2022-12-23T23:32:48.404Z,95488.31
2022-12-23T23:35:45.443Z,95495.53
2022-12-23T23:38:42.268Z,95499.00
2022-12-23T23:41:39.070Z,95511.19
2022-12-23T23:44:36.275Z,95504.31
2022-12-23T23:47:34.808Z,95521.41
2022-12-23T23:50:31.864Z,95530.03
2022-12-23T23:53:28.739Z,95531.94
2022-12-23T23:56:27.302Z,95537.06
2022-12-23T23:59:25.610Z,95551.34
